Terminal Aerodrome Forecast
Issued by NWS New Orleans/Baton Rouge, LA

Home | Current Version | Previous Version | Text Only | Print | Product List | Glossary On
Versions: 1 2 3 4 5 6 7 8 9 10 11 12
000
FTUS44 KLIX 232337
TAFNEW
TAF
KNEW 232337Z 2400/2424 11008KT P6SM FEW035
     FM240700 VRB03KT P6SM FEW015 FEW250
     FM241300 06005KT P6SM SCT010 BKN110 PROB30 2415/2418 4SM -TSRA
      BKN015CB BKN020=

USA.gov is the U.S. government's official web portal to all federal, state and local government web resources and services.